Time;durP1;ratioP1;P1;durP2;ratioP2;P2;SDS_P1;SDS_P2;PMS_P1;PMS_P2;Temp;Humidity;BMP_temperature;BMP_pressure;BME280_temperature;BME280_humidity;BME280_pressure;Samples;Min_cycle;Max_cycle;Signal;HPM_P1;HPM_P2
2023/03/28 00:02:21;;;;;;;6.97;3.60;;;;;;;;;;5035624;28;20210;-50
2023/03/28 00:04:48;;;;;;;5.47;3.00;;;;;;;;;;5038115;28;20176;-49
2023/03/28 00:07:14;;;;;;;3.72;2.47;;;;;;;;;;5038797;28;20167;-50
2023/03/28 00:09:41;;;;;;;3.25;2.28;;;;;;;;;;5039014;28;20195;-50
2023/03/28 00:12:07;;;;;;;3.85;2.25;;;;;;;;;;5048933;28;20497;-49
2023/03/28 00:14:34;;;;;;;3.88;1.98;;;;;;;;;;5038297;28;20180;-50
2023/03/28 00:17:00;;;;;;;3.40;1.77;;;;;;;;;;5025184;28;20184;-49
2023/03/28 00:19:31;;;;;;;3.03;2.25;;;;;;;;;;5040650;28;20454;-49
2023/03/28 00:21:57;;;;;;;3.90;2.00;;;;;;;;;;5043451;28;20346;-49
2023/03/28 00:24:23;;;;;;;4.35;1.92;;;;;;;;;;5042193;28;20774;-50
2023/03/28 00:26:53;;;;;;;2.33;1.70;;;;;;;;;;5041905;28;20217;-50
2023/03/28 00:29:19;;;;;;;3.45;1.73;;;;;;;;;;5032884;28;20186;-50
2023/03/28 00:31:45;;;;;;;2.78;1.88;;;;;;;;;;5031141;28;20184;-50
2023/03/28 00:34:11;;;;;;;4.40;2.00;;;;;;;;;;5034232;28;20183;-49
2023/03/28 00:36:38;;;;;;;2.40;2.05;;;;;;;;;;5033714;28;20188;-49
2023/03/28 00:39:05;;;;;;;4.75;1.90;;;;;;;;;;5043316;28;20203;-50
2023/03/28 00:41:32;;;;;;;2.28;1.77;;;;;;;;;;5048112;28;20681;-50
2023/03/28 00:43:59;;;;;;;2.47;1.50;;;;;;;;;;5040091;28;20594;-50
2023/03/28 00:46:36;;;;;;;3.50;1.90;;;;;;;;;;5038516;28;20463;-49
2023/03/28 00:49:03;;;;;;;2.45;1.70;;;;;;;;;;5052346;28;20307;-50
2023/03/28 00:51:31;;;;;;;2.60;1.77;;;;;;;;;;5030594;28;20628;-50
2023/03/28 00:53:58;;;;;;;3.67;1.50;;;;;;;;;;5044115;28;20256;-50
2023/03/28 00:56:25;;;;;;;3.05;2.00;;;;;;;;;;5034654;28;20183;-49
2023/03/28 00:58:51;;;;;;;3.08;2.13;;;;;;;;;;5035672;28;20200;-49
2023/03/28 01:01:19;;;;;;;2.85;1.70;;;;;;;;;;5038197;28;20241;-50
2023/03/28 01:03:47;;;;;;;3.65;1.92;;;;;;;;;;5039098;28;20268;-50
2023/03/28 01:06:13;;;;;;;4.00;1.77;;;;;;;;;;5032233;28;20585;-50
2023/03/28 01:08:40;;;;;;;2.50;1.30;;;;;;;;;;5047039;28;20209;-49
2023/03/28 01:11:07;;;;;;;4.90;1.70;;;;;;;;;;5040901;28;20189;-50
2023/03/28 01:13:34;;;;;;;2.22;1.58;;;;;;;;;;5039684;28;20179;-49
2023/03/28 01:16:02;;;;;;;2.53;1.30;;;;;;;;;;5033023;28;20207;-50
2023/03/28 01:18:29;;;;;;;1.73;1.45;;;;;;;;;;5043939;28;20210;-49
2023/03/28 01:21:13;;;;;;;3.38;1.58;;;;;;;;;;5032228;28;20184;-49
2023/03/28 01:23:58;;;;;;;1.35;1.25;;;;;;;;;;5039468;28;20233;-50
2023/03/28 01:26:34;;;;;;;3.42;1.40;;;;;;;;;;5022075;28;20238;-49
2023/03/28 01:29:11;;;;;;;4.45;1.48;;;;;;;;;;5031951;28;20183;-50
2023/03/28 01:31:48;;;;;;;1.42;1.10;;;;;;;;;;5040837;28;20209;-50
2023/03/28 01:34:32;;;;;;;2.90;1.40;;;;;;;;;;5041603;28;20183;-50
2023/03/28 01:36:58;;;;;;;1.50;1.33;;;;;;;;;;5034257;28;20207;-50
2023/03/28 01:39:30;;;;;;;2.10;1.33;;;;;;;;;;5040222;28;20207;-50
2023/03/28 01:41:59;;;;;;;3.00;1.13;;;;;;;;;;5046059;28;20195;-49
2023/03/28 01:44:24;;;;;;;2.42;1.30;;;;;;;;;;5037692;28;20176;-49
2023/03/28 01:46:57;;;;;;;2.88;1.20;;;;;;;;;;5036973;28;20183;-50
2023/03/28 01:49:41;;;;;;;1.45;0.98;;;;;;;;;;5034543;28;20191;-49
2023/03/28 01:52:17;;;;;;;2.78;1.20;;;;;;;;;;5036294;28;20574;-49
2023/03/28 01:55:04;;;;;;;2.55;1.15;;;;;;;;;;5025367;28;20196;-49
2023/03/28 01:57:39;;;;;;;3.13;1.40;;;;;;;;;;5029882;28;20191;-49
2023/03/28 02:00:14;;;;;;;2.78;1.15;;;;;;;;;;5031345;28;20465;-50
2023/03/28 02:02:59;;;;;;;1.92;1.10;;;;;;;;;;5048098;28;20233;-50
2023/03/28 02:05:26;;;;;;;1.75;1.10;;;;;;;;;;5032265;28;20248;-49
2023/03/28 02:07:53;;;;;;;2.85;1.40;;;;;;;;;;5042349;28;20274;-49
2023/03/28 02:10:21;;;;;;;4.57;1.30;;;;;;;;;;5032601;28;20167;-49
2023/03/28 02:12:49;;;;;;;3.03;1.67;;;;;;;;;;5034752;28;20191;-50
2023/03/28 02:15:15;;;;;;;1.40;0.90;;;;;;;;;;5020312;28;20188;-49
2023/03/28 02:17:43;;;;;;;3.15;1.38;;;;;;;;;;5043085;28;20250;-50
2023/03/28 02:20:11;;;;;;;3.67;1.60;;;;;;;;;;5028119;28;20325;-50
2023/03/28 02:22:46;;;;;;;3.65;1.30;;;;;;;;;;5045050;28;20210;-49
2023/03/28 02:25:12;;;;;;;3.53;1.23;;;;;;;;;;5038153;28;20190;-49
2023/03/28 02:27:39;;;;;;;3.28;1.38;;;;;;;;;;5036227;28;20179;-50
2023/03/28 02:30:07;;;;;;;3.40;1.13;;;;;;;;;;5031642;28;20188;-49
2023/03/28 02:32:34;;;;;;;3.40;1.10;;;;;;;;;;5041201;28;20497;-50
2023/03/28 02:35:01;;;;;;;2.22;1.30;;;;;;;;;;5031805;28;20175;-50
2023/03/28 02:37:46;;;;;;;4.18;1.35;;;;;;;;;;5033019;28;20440;-49
2023/03/28 02:40:33;;;;;;;4.20;1.02;;;;;;;;;;5028420;28;20203;-49
2023/03/28 02:43:03;;;;;;;3.92;1.30;;;;;;;;;;5031390;28;20485;-50
2023/03/28 02:45:50;;;;;;;1.58;0.90;;;;;;;;;;5022938;28;20208;-49
2023/03/28 02:48:22;;;;;;;1.83;1.10;;;;;;;;;;5030031;28;20630;-49
2023/03/28 02:50:57;;;;;;;3.15;0.90;;;;;;;;;;5036064;28;20262;-50
2023/03/28 02:53:31;;;;;;;2.60;1.00;;;;;;;;;;5027005;28;20259;-50
2023/03/28 02:56:06;;;;;;;4.65;1.00;;;;;;;;;;5031987;28;20589;-49
2023/03/28 02:58:54;;;;;;;4.28;1.52;;;;;;;;;;5029935;28;20196;-49
2023/03/28 03:01:20;;;;;;;3.03;1.20;;;;;;;;;;5037635;28;20213;-49
2023/03/28 03:03:47;;;;;;;4.18;1.30;;;;;;;;;;5035971;28;20503;-49
2023/03/28 03:06:13;;;;;;;2.72;1.10;;;;;;;;;;5033384;28;20752;-49
2023/03/28 03:08:39;;;;;;;2.80;1.27;;;;;;;;;;5039231;28;20192;-50
2023/03/28 03:11:05;;;;;;;3.53;1.38;;;;;;;;;;5039265;28;20176;-49
2023/03/28 03:13:31;;;;;;;3.30;1.13;;;;;;;;;;5032839;28;22057;-49
2023/03/28 03:15:57;;;;;;;2.72;1.27;;;;;;;;;;5037529;28;20193;-49
2023/03/28 03:18:23;;;;;;;3.83;1.20;;;;;;;;;;5041657;28;20223;-50
2023/03/28 03:20:49;;;;;;;3.83;1.30;;;;;;;;;;5037440;28;20187;-49
2023/03/28 03:23:15;;;;;;;2.97;1.30;;;;;;;;;;5033452;28;20203;-49
2023/03/28 03:25:42;;;;;;;4.13;1.20;;;;;;;;;;5029570;28;20180;-50
2023/03/28 03:28:08;;;;;;;4.75;1.30;;;;;;;;;;5027072;28;20177;-50
2023/03/28 03:30:34;;;;;;;5.88;1.20;;;;;;;;;;5029012;28;20461;-50
2023/03/28 03:33:00;;;;;;;3.17;1.38;;;;;;;;;;5041995;28;20190;-50
2023/03/28 03:35:32;;;;;;;5.43;1.55;;;;;;;;;;5040377;28;20179;-50
2023/03/28 03:37:57;;;;;;;3.85;1.50;;;;;;;;;;5039081;28;20483;-50
2023/03/28 03:40:23;;;;;;;3.00;1.15;;;;;;;;;;5045109;28;20210;-50
2023/03/28 03:42:49;;;;;;;3.00;1.23;;;;;;;;;;5044700;28;20235;-50
2023/03/28 03:45:15;;;;;;;6.40;1.58;;;;;;;;;;5038538;28;20186;-49
2023/03/28 03:47:41;;;;;;;4.35;1.33;;;;;;;;;;5039590;28;20194;-50
2023/03/28 03:50:08;;;;;;;4.65;1.48;;;;;;;;;;5046589;28;20477;-49
2023/03/28 03:52:34;;;;;;;8.82;1.80;;;;;;;;;;5033754;28;20192;-55
2023/03/28 03:55:00;;;;;;;6.53;1.83;;;;;;;;;;5035634;28;20200;-55
2023/03/28 03:57:26;;;;;;;6.78;2.03;;;;;;;;;;5041495;28;20427;-55
2023/03/28 03:59:52;;;;;;;13.00;2.40;;;;;;;;;;5044312;28;20199;-55
2023/03/28 04:02:18;;;;;;;10.43;2.22;;;;;;;;;;5037949;28;20260;-55
2023/03/28 04:04:44;;;;;;;7.10;1.90;;;;;;;;;;5041896;28;20188;-55
2023/03/28 04:07:11;;;;;;;11.40;2.25;;;;;;;;;;5038645;28;20562;-55
2023/03/28 04:09:37;;;;;;;11.00;2.28;;;;;;;;;;5040641;28;20179;-55
2023/03/28 04:12:04;;;;;;;9.43;2.35;;;;;;;;;;5044044;28;20504;-55
2023/03/28 04:14:30;;;;;;;8.02;2.20;;;;;;;;;;5043960;28;20184;-56
2023/03/28 04:16:56;;;;;;;8.02;2.45;;;;;;;;;;5036731;28;20192;-55
2023/03/28 04:19:23;;;;;;;15.85;2.47;;;;;;;;;;5043886;28;20179;-55
2023/03/28 04:21:51;;;;;;;7.68;2.40;;;;;;;;;;5038551;28;20208;-55
2023/03/28 04:24:19;;;;;;;7.55;2.63;;;;;;;;;;5040805;28;20188;-55
2023/03/28 04:26:48;;;;;;;8.40;2.10;;;;;;;;;;5039897;28;20171;-56
2023/03/28 04:29:15;;;;;;;8.80;2.65;;;;;;;;;;5025213;28;20176;-56
2023/03/28 04:31:48;;;;;;;5.90;2.00;;;;;;;;;;5042436;28;20186;-56
2023/03/28 04:34:14;;;;;;;5.50;1.85;;;;;;;;;;5029761;28;20948;-55
2023/03/28 04:36:40;;;;;;;7.82;2.35;;;;;;;;;;5023628;28;20204;-55
2023/03/28 04:39:07;;;;;;;6.50;1.80;;;;;;;;;;5029676;28;20291;-55
2023/03/28 04:41:33;;;;;;;6.10;2.30;;;;;;;;;;5043961;28;20180;-56
2023/03/28 04:43:59;;;;;;;7.60;1.50;;;;;;;;;;5051030;28;20636;-56
2023/03/28 04:46:25;;;;;;;7.80;2.17;;;;;;;;;;5039915;28;20622;-55
2023/03/28 04:48:51;;;;;;;9.38;1.98;;;;;;;;;;5032537;28;20187;-56
2023/03/28 04:51:17;;;;;;;6.30;2.33;;;;;;;;;;5032478;28;20185;-56
2023/03/28 04:53:43;;;;;;;10.38;2.33;;;;;;;;;;5033187;28;20229;-56
2023/03/28 04:56:12;;;;;;;3.90;1.85;;;;;;;;;;5030385;28;20184;-56
2023/03/28 04:58:38;;;;;;;3.63;1.83;;;;;;;;;;5049263;28;20172;-55
2023/03/28 05:01:04;;;;;;;6.50;2.00;;;;;;;;;;5032689;28;20489;-55
2023/03/28 05:03:30;;;;;;;6.88;2.05;;;;;;;;;;5039760;28;20208;-56
2023/03/28 05:05:56;;;;;;;6.95;1.70;;;;;;;;;;5037089;28;20243;-55
2023/03/28 05:08:24;;;;;;;8.38;2.33;;;;;;;;;;5047131;28;20254;-55
2023/03/28 05:10:51;;;;;;;7.00;2.08;;;;;;;;;;5046890;28;20202;-56
2023/03/28 05:13:17;;;;;;;5.82;1.85;;;;;;;;;;5047663;28;20472;-56
2023/03/28 05:15:43;;;;;;;6.97;1.75;;;;;;;;;;5023505;28;20183;-55
2023/03/28 05:18:10;;;;;;;5.53;1.70;;;;;;;;;;5037114;28;20242;-55
2023/03/28 05:20:36;;;;;;;5.07;1.58;;;;;;;;;;5044574;28;20186;-55
2023/03/28 05:23:04;;;;;;;4.32;1.70;;;;;;;;;;5034118;28;20211;-55
2023/03/28 05:25:30;;;;;;;3.65;1.58;;;;;;;;;;5045065;28;20558;-55
2023/03/28 05:27:56;;;;;;;4.45;1.45;;;;;;;;;;5053532;28;20185;-55
2023/03/28 05:30:22;;;;;;;4.63;1.42;;;;;;;;;;5038552;28;20194;-55
2023/03/28 05:32:48;;;;;;;5.70;1.50;;;;;;;;;;5044533;28;20274;-55
2023/03/28 05:35:15;;;;;;;3.70;1.40;;;;;;;;;;5042689;28;20302;-55
2023/03/28 05:37:41;;;;;;;4.68;1.90;;;;;;;;;;5034942;28;20278;-55
2023/03/28 05:40:09;;;;;;;4.25;1.48;;;;;;;;;;5042947;28;20222;-55
2023/03/28 05:42:35;;;;;;;1.77;1.20;;;;;;;;;;5046911;28;20662;-56
2023/03/28 05:45:03;;;;;;;3.70;1.58;;;;;;;;;;5030980;28;20211;-56
2023/03/28 05:47:29;;;;;;;3.95;1.45;;;;;;;;;;5036415;28;20179;-56
2023/03/28 05:49:55;;;;;;;4.45;1.45;;;;;;;;;;5028379;28;20176;-56
2023/03/28 05:52:21;;;;;;;3.22;1.60;;;;;;;;;;5038821;28;20217;-56
2023/03/28 05:54:47;;;;;;;2.20;1.50;;;;;;;;;;5033540;28;20547;-56
2023/03/28 05:57:13;;;;;;;3.10;1.45;;;;;;;;;;5041410;28;20266;-56
2023/03/28 05:59:42;;;;;;;2.65;1.25;;;;;;;;;;5037563;28;20267;-55
2023/03/28 06:02:11;;;;;;;3.47;1.55;;;;;;;;;;5048269;28;20231;-55
2023/03/28 06:04:38;;;;;;;2.42;1.13;;;;;;;;;;5036951;28;20218;-56
2023/03/28 06:07:04;;;;;;;3.25;1.42;;;;;;;;;;5051402;28;20179;-55
2023/03/28 06:09:30;;;;;;;5.07;1.55;;;;;;;;;;5045150;28;20179;-55
2023/03/28 06:11:57;;;;;;;3.58;1.30;;;;;;;;;;5038629;28;20909;-56
2023/03/28 06:14:23;;;;;;;3.97;1.23;;;;;;;;;;5035063;28;20197;-56
2023/03/28 06:16:49;;;;;;;2.25;1.27;;;;;;;;;;5041781;28;20179;-56
2023/03/28 06:19:15;;;;;;;5.28;1.30;;;;;;;;;;5036587;28;20564;-56
2023/03/28 06:21:41;;;;;;;4.10;1.35;;;;;;;;;;5049797;28;20207;-56
2023/03/28 06:24:06;;;;;;;2.42;1.27;;;;;;;;;;5047442;28;20176;-57
2023/03/28 06:26:32;;;;;;;4.28;1.00;;;;;;;;;;5035122;28;20180;-57
2023/03/28 06:28:58;;;;;;;4.32;1.23;;;;;;;;;;5047817;28;20184;-57
2023/03/28 06:31:24;;;;;;;3.65;1.33;;;;;;;;;;5040024;28;20183;-57
2023/03/28 06:33:50;;;;;;;3.53;1.20;;;;;;;;;;5050390;28;20608;-57
2023/03/28 06:36:16;;;;;;;1.83;0.93;;;;;;;;;;5036956;28;20183;-57
2023/03/28 06:38:42;;;;;;;2.45;0.90;;;;;;;;;;5044159;28;20180;-57
2023/03/28 06:41:08;;;;;;;2.50;1.20;;;;;;;;;;5033402;28;20300;-57
2023/03/28 06:43:34;;;;;;;3.08;1.20;;;;;;;;;;5029310;28;20208;-57
2023/03/28 06:46:00;;;;;;;1.10;0.70;;;;;;;;;;5029751;28;20267;-57
2023/03/28 06:48:30;;;;;;;2.75;1.35;;;;;;;;;;5041756;28;20317;-57
2023/03/28 06:50:56;;;;;;;1.50;0.90;;;;;;;;;;5035763;28;20262;-57
2023/03/28 06:53:22;;;;;;;3.55;1.20;;;;;;;;;;5048694;28;20265;-57
2023/03/28 06:55:51;;;;;;;1.98;1.00;;;;;;;;;;5040600;28;20275;-58
2023/03/28 06:58:18;;;;;;;2.25;1.05;;;;;;;;;;5026216;28;20269;-58
2023/03/28 07:00:44;;;;;;;2.65;1.15;;;;;;;;;;5038895;28;20740;-57
2023/03/28 07:03:10;;;;;;;3.05;0.90;;;;;;;;;;5035887;28;21207;-57
2023/03/28 07:05:40;;;;;;;3.72;1.38;;;;;;;;;;5032415;28;20672;-58
2023/03/28 07:08:07;;;;;;;3.05;1.13;;;;;;;;;;5036117;28;20192;-58
2023/03/28 07:10:33;;;;;;;5.00;1.70;;;;;;;;;;5039574;28;20485;-58
2023/03/28 07:12:59;;;;;;;1.73;1.05;;;;;;;;;;5044268;28;20192;-57
2023/03/28 07:15:25;;;;;;;2.35;1.08;;;;;;;;;;5031705;28;20231;-58
2023/03/28 07:17:52;;;;;;;3.20;1.13;;;;;;;;;;5037046;28;20188;-58
2023/03/28 07:20:18;;;;;;;2.70;1.20;;;;;;;;;;5036413;28;20214;-58
2023/03/28 07:22:44;;;;;;;1.65;1.00;;;;;;;;;;5047349;28;20248;-58
2023/03/28 07:25:10;;;;;;;2.75;1.13;;;;;;;;;;5035352;28;20184;-57
2023/03/28 07:27:36;;;;;;;3.67;1.00;;;;;;;;;;5035355;28;20237;-57
2023/03/28 07:30:02;;;;;;;1.15;0.80;;;;;;;;;;5036811;28;20195;-57
2023/03/28 07:32:28;;;;;;;2.67;1.15;;;;;;;;;;5036883;28;20455;-57
2023/03/28 07:34:54;;;;;;;2.08;0.88;;;;;;;;;;5035820;28;20196;-57
2023/03/28 07:37:20;;;;;;;1.98;0.90;;;;;;;;;;5030539;28;20278;-57
2023/03/28 07:39:46;;;;;;;2.38;1.05;;;;;;;;;;5044191;28;20183;-58
2023/03/28 07:42:13;;;;;;;2.45;1.10;;;;;;;;;;5043590;28;20212;-57
2023/03/28 07:44:39;;;;;;;2.83;1.00;;;;;;;;;;5034784;28;20282;-57
2023/03/28 07:47:05;;;;;;;2.13;0.98;;;;;;;;;;5034544;28;20521;-57
2023/03/28 07:49:32;;;;;;;3.22;1.08;;;;;;;;;;5033535;28;20176;-57
2023/03/28 07:51:58;;;;;;;1.85;0.85;;;;;;;;;;5039711;28;20217;-57
2023/03/28 07:54:26;;;;;;;1.17;0.88;;;;;;;;;;5037269;28;20222;-57
2023/03/28 07:56:52;;;;;;;2.75;1.10;;;;;;;;;;5046632;28;20176;-58
2023/03/28 07:59:18;;;;;;;2.05;0.80;;;;;;;;;;5030349;28;20188;-57
2023/03/28 08:01:45;;;;;;;2.03;1.05;;;;;;;;;;5042632;28;20270;-57
2023/03/28 08:04:12;;;;;;;2.78;0.88;;;;;;;;;;5043143;28;20187;-57
2023/03/28 08:06:39;;;;;;;1.35;0.85;;;;;;;;;;5039376;28;20263;-57
2023/03/28 08:09:09;;;;;;;1.75;0.90;;;;;;;;;;5049870;28;20190;-58
2023/03/28 08:11:35;;;;;;;2.20;0.82;;;;;;;;;;5052655;28;20262;-57
2023/03/28 08:14:02;;;;;;;3.45;1.00;;;;;;;;;;5043303;28;20195;-57
2023/03/28 08:16:29;;;;;;;1.50;1.02;;;;;;;;;;5043378;28;20179;-57
2023/03/28 08:18:55;;;;;;;2.00;0.90;;;;;;;;;;5039593;28;20453;-57
2023/03/28 08:21:21;;;;;;;0.98;0.70;;;;;;;;;;5034230;28;20187;-57
2023/03/28 08:23:47;;;;;;;1.08;0.77;;;;;;;;;;5046064;28;20214;-57
2023/03/28 08:26:13;;;;;;;2.72;0.93;;;;;;;;;;5029293;28;20187;-57
2023/03/28 08:28:40;;;;;;;1.58;0.90;;;;;;;;;;5043501;28;20184;-57
2023/03/28 08:31:13;;;;;;;1.20;0.63;;;;;;;;;;5043326;28;20175;-57
2023/03/28 08:33:39;;;;;;;1.48;0.77;;;;;;;;;;5035835;28;20282;-58
2023/03/28 08:36:05;;;;;;;0.75;0.65;;;;;;;;;;5034615;28;20183;-57
2023/03/28 08:38:31;;;;;;;1.77;0.90;;;;;;;;;;5036346;28;20283;-57
2023/03/28 08:41:06;;;;;;;1.50;0.70;;;;;;;;;;5043215;28;20192;-57
2023/03/28 08:43:42;;;;;;;2.03;0.80;;;;;;;;;;5034969;28;20282;-57
2023/03/28 08:46:11;;;;;;;0.93;0.80;;;;;;;;;;5036132;28;20207;-58
2023/03/28 08:48:40;;;;;;;0.57;0.57;;;;;;;;;;5036495;28;20179;-58
2023/03/28 08:51:25;;;;;;;1.33;0.85;;;;;;;;;;5035437;28;20578;-58
2023/03/28 08:53:59;;;;;;;0.93;0.57;;;;;;;;;;5034872;28;20468;-58
2023/03/28 08:56:26;;;;;;;2.15;0.90;;;;;;;;;;5036048;28;20469;-57
2023/03/28 08:59:04;;;;;;;1.85;0.85;;;;;;;;;;5035069;28;20195;-57
2023/03/28 09:01:31;;;;;;;1.52;0.90;;;;;;;;;;5035266;28;20211;-58
2023/03/28 09:03:57;;;;;;;0.70;0.50;;;;;;;;;;5035325;28;20184;-58
2023/03/28 09:06:23;;;;;;;1.13;0.60;;;;;;;;;;5035483;28;20486;-57
2023/03/28 09:08:50;;;;;;;0.80;0.57;;;;;;;;;;5035993;28;20219;-57
2023/03/28 09:11:25;;;;;;;1.73;0.90;;;;;;;;;;5042247;28;20192;-57
2023/03/28 09:14:09;;;;;;;1.33;0.80;;;;;;;;;;5034903;28;20198;-57
2023/03/28 09:16:51;;;;;;;1.25;0.82;;;;;;;;;;5034686;28;20263;-57
2023/03/28 09:19:46;;;;;;;0.75;0.73;;;;;;;;;;5035585;28;20237;-57
2023/03/28 09:22:19;;;;;;;0.80;0.60;;;;;;;;;;5026579;28;20223;-57
2023/03/28 09:24:55;;;;;;;1.13;0.68;;;;;;;;;;5035572;28;20191;-57
2023/03/28 09:27:27;;;;;;;2.15;0.60;;;;;;;;;;5035055;28;20183;-58
2023/03/28 09:30:06;;;;;;;1.40;0.80;;;;;;;;;;5035241;28;20187;-58
2023/03/28 09:32:36;;;;;;;1.80;0.75;;;;;;;;;;5034103;28;20195;-58
2023/03/28 09:35:10;;;;;;;1.55;0.80;;;;;;;;;;5034017;28;20212;-58
2023/03/28 09:37:38;;;;;;;0.85;0.70;;;;;;;;;;5034536;28;20254;-58
2023/03/28 09:40:13;;;;;;;1.27;0.50;;;;;;;;;;5041825;28;20191;-58
2023/03/28 09:42:51;;;;;;;0.95;0.77;;;;;;;;;;5034541;28;20211;-58
2023/03/28 09:45:25;;;;;;;1.02;0.65;;;;;;;;;;5035264;28;20770;-58
2023/03/28 09:47:52;;;;;;;1.27;0.63;;;;;;;;;;5035100;28;20829;-59
2023/03/28 09:50:18;;;;;;;1.35;0.68;;;;;;;;;;5027252;28;20176;-58
2023/03/28 09:52:45;;;;;;;0.70;0.70;;;;;;;;;;5034282;28;20176;-58
2023/03/28 09:55:22;;;;;;;1.25;0.70;;;;;;;;;;5034901;28;20238;-58
2023/03/28 09:57:58;;;;;;;0.75;0.60;;;;;;;;;;5035108;28;20234;-58
2023/03/28 10:00:24;;;;;;;0.90;0.52;;;;;;;;;;5035193;28;20176;-58
2023/03/28 10:02:53;;;;;;;1.20;0.70;;;;;;;;;;5034051;28;20294;-58
2023/03/28 10:05:33;;;;;;;1.35;0.65;;;;;;;;;;5034598;28;20175;-58
2023/03/28 10:08:02;;;;;;;1.08;0.50;;;;;;;;;;5042641;28;20274;-58
2023/03/28 10:10:28;;;;;;;0.50;0.47;;;;;;;;;;5035726;28;20176;-58
2023/03/28 10:13:01;;;;;;;1.85;0.77;;;;;;;;;;5033894;28;20238;-57
2023/03/28 10:15:40;;;;;;;0.50;0.50;;;;;;;;;;5041410;28;20194;-58
2023/03/28 10:18:06;;;;;;;1.50;0.50;;;;;;;;;;5036430;28;20179;-58
2023/03/28 10:20:37;;;;;;;0.98;0.60;;;;;;;;;;5048907;28;20191;-58
2023/03/28 10:23:04;;;;;;;1.20;0.50;;;;;;;;;;5033243;28;20445;-58
2023/03/28 10:25:36;;;;;;;0.88;0.50;;;;;;;;;;5034275;28;20176;-58
2023/03/28 10:28:04;;;;;;;4.13;0.63;;;;;;;;;;5035742;28;20596;-57
2023/03/28 10:30:31;;;;;;;2.17;0.60;;;;;;;;;;5038308;28;20198;-58
2023/03/28 10:33:22;;;;;;;1.90;0.50;;;;;;;;;;5032958;28;20525;-58
2023/03/28 10:35:54;;;;;;;2.08;0.70;;;;;;;;;;5033651;28;20183;-58
2023/03/28 10:38:22;;;;;;;4.68;0.88;;;;;;;;;;5033969;28;20202;-58
2023/03/28 10:40:52;;;;;;;2.40;0.70;;;;;;;;;;5037550;28;20199;-58
2023/03/28 10:43:18;;;;;;;1.23;0.65;;;;;;;;;;5033234;28;20590;-58
2023/03/28 10:45:46;;;;;;;1.58;0.70;;;;;;;;;;5042810;28;20188;-57
2023/03/28 10:48:19;;;;;;;4.78;1.85;;;;;;;;;;5041477;28;20182;-57
2023/03/28 10:50:48;;;;;;;2.78;0.90;;;;;;;;;;5039254;28;20537;-57
2023/03/28 10:53:32;;;;;;;5.80;0.90;;;;;;;;;;5055773;28;20180;-57
2023/03/28 10:56:17;;;;;;;1.15;0.85;;;;;;;;;;5040209;28;20202;-57
2023/03/28 10:58:48;;;;;;;2.00;0.90;;;;;;;;;;5040844;28;20221;-57
2023/03/28 11:01:19;;;;;;;3.13;1.02;;;;;;;;;;5049429;28;20178;-57
2023/03/28 11:03:52;;;;;;;2.70;1.00;;;;;;;;;;5039388;28;20553;-57
2023/03/28 11:06:25;;;;;;;1.30;0.90;;;;;;;;;;5038819;28;20175;-58
2023/03/28 11:09:07;;;;;;;3.10;0.80;;;;;;;;;;5048150;28;20188;-58
2023/03/28 11:11:40;;;;;;;1.48;0.85;;;;;;;;;;5033389;28;20267;-58
2023/03/28 11:14:08;;;;;;;1.95;0.70;;;;;;;;;;5048028;28;20187;-57
2023/03/28 11:16:42;;;;;;;4.22;1.00;;;;;;;;;;5050839;28;20193;-58
2023/03/28 11:19:08;;;;;;;1.65;0.80;;;;;;;;;;5050066;28;20234;-58
2023/03/28 11:21:46;;;;;;;1.15;0.85;;;;;;;;;;5040430;28;20611;-58
2023/03/28 11:24:15;;;;;;;1.63;0.85;;;;;;;;;;5048437;28;20214;-58
2023/03/28 11:26:53;;;;;;;2.65;1.33;;;;;;;;;;5040396;28;20195;-57
2023/03/28 11:29:27;;;;;;;1.35;0.90;;;;;;;;;;5036174;28;20233;-58
2023/03/28 11:32:00;;;;;;;1.63;1.20;;;;;;;;;;5039995;28;20209;-58
2023/03/28 11:34:29;;;;;;;3.38;1.00;;;;;;;;;;5047706;28;20203;-58
2023/03/28 11:36:59;;;;;;;2.53;1.20;;;;;;;;;;5039144;28;20227;-58
2023/03/28 11:39:33;;;;;;;6.45;1.10;;;;;;;;;;5040543;28;20183;-58
2023/03/28 11:42:02;;;;;;;2.35;1.00;;;;;;;;;;5040461;28;20196;-58
2023/03/28 11:44:30;;;;;;;6.45;1.50;;;;;;;;;;5047395;28;20172;-59
2023/03/28 11:46:59;;;;;;;4.40;1.42;;;;;;;;;;5039791;28;20179;-58
2023/03/28 11:49:48;;;;;;;3.90;1.40;;;;;;;;;;5040275;28;20191;-58
2023/03/28 11:52:20;;;;;;;4.00;1.15;;;;;;;;;;5050885;28;20266;-57
2023/03/28 11:54:53;;;;;;;3.80;1.10;;;;;;;;;;5044546;28;20194;-58
2023/03/28 11:57:30;;;;;;;4.90;1.50;;;;;;;;;;5039482;28;20179;-58
2023/03/28 12:00:15;;;;;;;5.05;1.42;;;;;;;;;;5041784;28;20179;-58
2023/03/28 12:02:51;;;;;;;2.70;1.30;;;;;;;;;;5037326;28;20207;-58
2023/03/28 12:05:23;;;;;;;3.15;1.23;;;;;;;;;;5036629;28;20513;-58
2023/03/28 12:07:56;;;;;;;4.10;1.33;;;;;;;;;;5037257;28;20182;-58
2023/03/28 12:10:35;;;;;;;2.58;1.27;;;;;;;;;;5036284;28;20176;-58
2023/03/28 12:13:21;;;;;;;3.30;0.93;;;;;;;;;;5051921;28;20179;-58
2023/03/28 12:15:52;;;;;;;2.65;1.50;;;;;;;;;;5036509;28;20176;-58
2023/03/28 12:18:27;;;;;;;1.67;0.82;;;;;;;;;;5035954;28;20180;-58
2023/03/28 12:20:59;;;;;;;2.97;1.20;;;;;;;;;;5036192;28;20577;-58
2023/03/28 12:23:31;;;;;;;2.33;1.27;;;;;;;;;;5041728;28;20593;-58
2023/03/28 12:26:20;;;;;;;2.90;1.30;;;;;;;;;;5035901;28;20594;-58
2023/03/28 12:28:52;;;;;;;1.92;1.00;;;;;;;;;;5033779;28;20242;-58
2023/03/28 12:31:22;;;;;;;5.05;1.10;;;;;;;;;;5035945;28;20183;-57
2023/03/28 12:33:54;;;;;;;3.22;1.20;;;;;;;;;;5036169;28;20187;-57
2023/03/28 12:36:32;;;;;;;1.85;1.10;;;;;;;;;;5038424;28;20205;-58
2023/03/28 12:39:23;;;;;;;2.58;1.05;;;;;;;;;;5036353;28;20188;-58
2023/03/28 12:41:50;;;;;;;2.38;1.10;;;;;;;;;;5027213;28;20202;-58
2023/03/28 12:44:21;;;;;;;3.50;1.05;;;;;;;;;;5044070;28;20191;-58
2023/03/28 12:46:50;;;;;;;3.05;1.02;;;;;;;;;;5036031;28;20176;-58
2023/03/28 12:49:20;;;;;;;3.00;1.20;;;;;;;;;;5039286;28;20180;-57
2023/03/28 12:51:51;;;;;;;2.85;1.00;;;;;;;;;;5035839;28;20294;-58
2023/03/28 12:54:26;;;;;;;1.42;0.70;;;;;;;;;;5035896;28;20191;-58
2023/03/28 12:57:01;;;;;;;1.83;0.75;;;;;;;;;;5035239;28;20573;-58
2023/03/28 12:59:40;;;;;;;1.77;0.98;;;;;;;;;;5035676;28;20183;-58
2023/03/28 13:02:14;;;;;;;1.55;0.90;;;;;;;;;;5033225;28;20199;-58
2023/03/28 13:04:44;;;;;;;1.52;0.80;;;;;;;;;;5033829;28;20227;-58
2023/03/28 13:07:16;;;;;;;1.15;1.00;;;;;;;;;;5033479;28;20459;-58
2023/03/28 13:09:49;;;;;;;1.52;0.80;;;;;;;;;;5036161;28;20218;-58
2023/03/28 13:12:33;;;;;;;1.25;0.90;;;;;;;;;;5035618;28;20547;-58
2023/03/28 13:15:01;;;;;;;2.60;1.00;;;;;;;;;;5032096;28;20202;-58
2023/03/28 13:17:29;;;;;;;4.68;1.30;;;;;;;;;;5035205;28;20184;-58
2023/03/28 13:20:09;;;;;;;1.33;0.82;;;;;;;;;;5036605;28;20270;-57
2023/03/28 13:22:41;;;;;;;5.22;1.20;;;;;;;;;;5029308;28;20210;-58
2023/03/28 13:25:19;;;;;;;2.22;1.10;;;;;;;;;;5033683;28;20207;-57
2023/03/28 13:27:46;;;;;;;0.90;0.70;;;;;;;;;;5031956;28;20198;-58
2023/03/28 13:30:17;;;;;;;3.17;0.90;;;;;;;;;;5034718;28;20222;-58
2023/03/28 13:32:48;;;;;;;2.20;1.00;;;;;;;;;;5040425;28;20176;-58
2023/03/28 13:35:32;;;;;;;1.77;1.00;;;;;;;;;;5032473;28;20438;-58
2023/03/28 13:38:15;;;;;;;2.78;0.95;;;;;;;;;;5034227;28;20234;-48
2023/03/28 13:40:53;;;;;;;0.98;0.93;;;;;;;;;;5035123;28;20214;-50
2023/03/28 13:43:24;;;;;;;4.18;1.00;;;;;;;;;;5033704;28;20207;-50
2023/03/28 13:45:53;;;;;;;3.63;0.95;;;;;;;;;;5033900;28;20267;-61
2023/03/28 13:48:20;;;;;;;2.00;0.90;;;;;;;;;;5034522;28;20179;-64
2023/03/28 13:50:46;;;;;;;2.55;0.90;;;;;;;;;;5034912;28;20178;-65
2023/03/28 13:53:12;;;;;;;1.67;0.93;;;;;;;;;;5034381;28;20269;-64
2023/03/28 13:55:39;;;;;;;1.73;0.88;;;;;;;;;;5034280;28;20555;-64
2023/03/28 13:58:05;;;;;;;2.70;0.93;;;;;;;;;;5033332;28;20188;-65
2023/03/28 14:00:31;;;;;;;7.72;1.33;;;;;;;;;;5035655;28;20187;-65
2023/03/28 14:03:01;;;;;;;6.05;1.17;;;;;;;;;;5040027;28;20403;-65
2023/03/28 14:05:28;;;;;;;3.38;1.10;;;;;;;;;;5026635;28;20185;-65
2023/03/28 14:08:00;;;;;;;4.10;0.88;;;;;;;;;;5034204;28;20187;-65
2023/03/28 14:10:30;;;;;;;5.63;1.02;;;;;;;;;;5032970;28;20566;-65
2023/03/28 14:13:16;;;;;;;7.72;1.08;;;;;;;;;;5043863;28;20328;-64
2023/03/28 14:15:43;;;;;;;4.13;1.05;;;;;;;;;;5046331;28;20205;-65
2023/03/28 14:18:18;;;;;;;4.65;1.00;;;;;;;;;;5033911;28;20204;-64
2023/03/28 14:20:45;;;;;;;3.03;1.00;;;;;;;;;;5039201;28;20182;-64
2023/03/28 14:23:37;;;;;;;5.63;0.90;;;;;;;;;;5043745;28;20211;-64
2023/03/28 14:26:23;;;;;;;2.60;1.30;;;;;;;;;;5040709;28;20202;-64
2023/03/28 14:28:50;;;;;;;5.60;1.08;;;;;;;;;;5033869;28;20230;-64
2023/03/28 14:31:33;;;;;;;6.38;1.02;;;;;;;;;;5031940;28;20185;-64
2023/03/28 14:34:00;;;;;;;1.30;0.80;;;;;;;;;;5047328;28;20183;-64
2023/03/28 14:36:29;;;;;;;2.20;0.73;;;;;;;;;;5035736;28;20444;-65
2023/03/28 14:39:00;;;;;;;0.65;0.65;;;;;;;;;;5035122;28;20216;-65
2023/03/28 14:41:28;;;;;;;2.80;0.80;;;;;;;;;;5046439;28;20190;-64
2023/03/28 14:43:55;;;;;;;3.38;0.90;;;;;;;;;;5043314;28;20203;-61
2023/03/28 14:46:24;;;;;;;2.05;1.10;;;;;;;;;;5030647;28;20176;-61
2023/03/28 14:48:52;;;;;;;3.92;1.25;;;;;;;;;;5028968;28;20247;-61
2023/03/28 14:51:20;;;;;;;1.55;0.90;;;;;;;;;;5051632;28;20238;-61
2023/03/28 14:53:46;;;;;;;3.78;0.90;;;;;;;;;;5034796;28;20554;-61
2023/03/28 14:56:15;;;;;;;5.05;1.25;;;;;;;;;;5041935;28;20214;-61
2023/03/28 14:58:42;;;;;;;2.88;0.82;;;;;;;;;;5030395;28;20456;-61
2023/03/28 15:01:09;;;;;;;2.30;0.80;;;;;;;;;;5036091;28;20180;-61